createdAt,value
2018-11-06T00:00:18.143Z,122.00
2018-11-06T00:02:48.116Z,120.03
2018-11-06T00:05:18.690Z,119.80
2018-11-06T00:07:48.020Z,112.40
2018-11-06T00:10:17.429Z,122.47
2018-11-06T00:12:46.769Z,122.53
2018-11-06T00:15:16.035Z,117.63
2018-11-06T00:17:45.304Z,122.67
2018-11-06T00:20:15.388Z,117.57
2018-11-06T00:22:44.679Z,119.10
2018-11-06T00:25:14.420Z,125.67
2018-11-06T00:27:43.681Z,118.13
2018-11-06T00:30:14.263Z,119.47
2018-11-06T00:32:44.056Z,127.17
2018-11-06T00:35:14.511Z,121.90
2018-11-06T00:37:44.851Z,119.27
2018-11-06T00:40:14.292Z,126.47
2018-11-06T00:42:43.579Z,134.50
2018-11-06T00:45:15.892Z,130.33
2018-11-06T00:47:45.150Z,127.13
2018-11-06T00:50:14.914Z,132.13
2018-11-06T00:52:45.063Z,127.17
2018-11-06T00:55:14.680Z,129.97
2018-11-06T00:57:44.746Z,126.10
2018-11-06T01:00:15.771Z,135.47
2018-11-06T01:02:45.171Z,132.60
2018-11-06T01:05:15.249Z,123.93
2018-11-06T01:07:46.885Z,125.50
2018-11-06T01:10:16.352Z,123.73
2018-11-06T01:12:45.666Z,132.67
2018-11-06T01:15:15.989Z,136.00
2018-11-06T01:17:45.998Z,131.40
2018-11-06T01:20:17.174Z,136.70
2018-11-06T01:22:46.493Z,134.93
2018-11-06T01:25:15.964Z,138.57
2018-11-06T01:27:45.295Z,140.20
2018-11-06T01:30:17.122Z,155.87
2018-11-06T01:32:46.711Z,143.97
2018-11-06T01:35:16.412Z,147.17
2018-11-06T01:37:46.666Z,153.77
2018-11-06T01:40:17.127Z,151.03
2018-11-06T01:42:46.945Z,152.73
2018-11-06T01:45:17.250Z,151.53
2018-11-06T01:47:46.507Z,147.53
2018-11-06T01:50:16.949Z,139.10
2018-11-06T01:52:47.101Z,155.90
2018-11-06T01:55:16.996Z,165.40
2018-11-06T01:57:46.350Z,154.97
2018-11-06T02:00:17.656Z,166.67
2018-11-06T02:02:47.075Z,162.97
2018-11-06T02:05:17.471Z,160.97
2018-11-06T02:07:47.969Z,169.20
2018-11-06T02:10:17.796Z,186.77
2018-11-06T02:12:47.609Z,178.57
2018-11-06T02:15:16.944Z,162.97
2018-11-06T02:17:46.509Z,172.13
2018-11-06T02:20:16.435Z,172.63
2018-11-06T02:22:46.242Z,161.30
2018-11-06T02:25:16.068Z,154.53
2018-11-06T02:27:45.338Z,151.93
2018-11-06T02:30:16.095Z,165.13
2018-11-06T02:32:46.109Z,165.10
2018-11-06T02:35:15.442Z,168.60
2018-11-06T02:37:44.720Z,162.33
2018-11-06T02:40:15.045Z,160.20
2018-11-06T02:42:44.359Z,171.73
2018-11-06T02:45:14.152Z,178.40
2018-11-06T02:47:43.981Z,179.10
2018-11-06T02:50:14.807Z,188.17
2018-11-06T02:52:44.731Z,216.17
2018-11-06T02:55:14.249Z,211.10
2018-11-06T02:57:43.881Z,175.13
2018-11-06T03:00:15.081Z,238.97
2018-11-06T03:02:45.232Z,174.27
2018-11-06T03:05:14.513Z,194.73
2018-11-06T03:07:43.936Z,173.23
2018-11-06T03:10:14.089Z,318.57
2018-11-06T03:12:44.019Z,140.83
2018-11-06T03:15:14.386Z,285.03
2018-11-06T03:17:43.780Z,299.93
2018-11-06T03:20:13.675Z,231.83
2018-11-06T03:22:43.616Z,327.23
2018-11-06T03:25:13.161Z,289.67
2018-11-06T03:27:42.907Z,216.87
2018-11-06T03:30:14.803Z,286.90
2018-11-06T03:32:44.311Z,261.00
2018-11-06T03:35:14.502Z,284.53
2018-11-06T03:37:43.827Z,148.10
2018-11-06T03:40:13.725Z,234.07
2018-11-06T03:42:43.520Z,258.77
2018-11-06T03:45:13.755Z,233.13
2018-11-06T03:47:43.077Z,182.83
2018-11-06T03:50:13.202Z,262.13
2018-11-06T03:52:42.815Z,264.37
2018-11-06T03:55:12.074Z,276.87
2018-11-06T03:57:41.333Z,256.83
2018-11-06T04:00:13.349Z,240.60
2018-11-06T04:02:43.187Z,181.47
2018-11-06T04:05:12.756Z,282.60
2018-11-06T04:07:42.072Z,326.40
2018-11-06T04:10:12.108Z,192.07
2018-11-06T04:12:42.523Z,295.70
2018-11-06T04:15:13.133Z,457.30
2018-11-06T04:17:43.484Z,279.40
2018-11-06T04:20:12.752Z,171.90
2018-11-06T04:22:42.532Z,288.23
2018-11-06T04:25:11.847Z,309.23
2018-11-06T04:27:41.348Z,288.43
2018-11-06T04:30:12.427Z,246.20
2018-11-06T04:32:42.545Z,217.27
2018-11-06T04:35:12.571Z,257.10
2018-11-06T04:37:42.434Z,245.77
2018-11-06T04:40:14.679Z,229.30
2018-11-06T04:42:44.149Z,260.47
2018-11-06T04:45:13.991Z,288.43
2018-11-06T04:47:43.365Z,244.50
2018-11-06T04:50:13.172Z,247.53
2018-11-06T04:52:42.646Z,241.30
2018-11-06T04:55:12.908Z,377.57
2018-11-06T04:57:42.740Z,300.23
2018-11-06T05:00:13.255Z,358.50
2018-11-06T05:02:43.089Z,299.03
2018-11-06T05:05:12.888Z,232.93
2018-11-06T05:07:42.188Z,244.20
2018-11-06T05:10:12.735Z,291.27
2018-11-06T05:12:41.963Z,298.67
2018-11-06T05:15:12.853Z,290.90
2018-11-06T05:17:42.171Z,229.80
2018-11-06T05:20:15.005Z,222.10
2018-11-06T05:22:45.302Z,253.77
2018-11-06T05:25:15.020Z,201.03
2018-11-06T05:27:44.677Z,275.27
2018-11-06T05:30:13.983Z,352.80
2018-11-06T05:32:44.196Z,264.00
2018-11-06T05:35:13.484Z,212.10
2018-11-06T05:37:42.827Z,289.13
2018-11-06T05:40:23.290Z,214.83
2018-11-06T05:42:52.536Z,252.00
2018-11-06T05:45:21.793Z,286.07
2018-11-06T05:47:51.776Z,278.23
2018-11-06T05:50:21.068Z,310.13
2018-11-06T05:52:50.349Z,209.73
2018-11-06T05:55:19.626Z,353.73
2018-11-06T05:57:48.879Z,435.47
2018-11-06T06:00:18.136Z,230.80
2018-11-06T06:02:47.371Z,266.07
2018-11-06T06:05:16.824Z,361.97
2018-11-06T06:07:46.126Z,246.03
2018-11-06T06:10:15.444Z,191.10
2018-11-06T06:12:44.718Z,241.60
2018-11-06T06:15:13.993Z,173.83
2018-11-06T06:17:43.275Z,258.80
2018-11-06T06:20:12.677Z,224.07
2018-11-06T06:22:41.958Z,180.07
2018-11-06T06:25:11.160Z,178.40
2018-11-06T06:27:40.419Z,182.27
2018-11-06T06:30:12.340Z,155.53
2018-11-06T06:32:41.716Z,101.37
2018-11-06T06:35:11.277Z,123.03
2018-11-06T06:37:40.573Z,116.07
2018-11-06T06:40:12.219Z,112.27
2018-11-06T06:42:41.719Z,128.80
2018-11-06T06:45:12.769Z,135.70
2018-11-06T06:47:42.044Z,112.73
2018-11-06T06:50:14.146Z,106.73
2018-11-06T06:52:43.834Z,102.67
2018-11-06T06:55:14.069Z,99.67
2018-11-06T06:57:44.316Z,93.27
2018-11-06T07:00:22.461Z,95.93
2018-11-06T07:02:51.677Z,90.33
2018-11-06T07:05:22.435Z,78.87
2018-11-06T07:07:51.700Z,90.97
2018-11-06T07:10:22.266Z,90.33
2018-11-06T07:12:51.833Z,88.40
2018-11-06T07:15:22.183Z,95.13
2018-11-06T07:17:52.130Z,91.13
2018-11-06T07:20:23.960Z,93.20
2018-11-06T07:22:53.285Z,100.40
2018-11-06T07:25:22.819Z,92.63
2018-11-06T07:27:52.043Z,98.10
2018-11-06T07:30:22.509Z,96.60
2018-11-06T07:32:51.791Z,98.60
2018-11-06T07:35:21.247Z,97.80
2018-11-06T07:37:50.514Z,92.07
2018-11-06T07:40:20.659Z,94.13
2018-11-06T07:42:49.975Z,95.80
2018-11-06T07:45:20.715Z,91.20
2018-11-06T07:47:49.966Z,85.70
2018-11-06T07:50:19.302Z,82.77
2018-11-06T07:52:49.040Z,84.03
2018-11-06T07:55:19.176Z,87.37
2018-11-06T07:57:48.475Z,82.33
2018-11-06T08:00:22.561Z,82.50
2018-11-06T08:02:51.959Z,82.37
2018-11-06T08:05:21.407Z,79.77
2018-11-06T08:07:51.347Z,79.60
2018-11-06T08:10:20.735Z,75.27
2018-11-06T08:12:52.440Z,83.90
2018-11-06T08:15:21.809Z,76.67
2018-11-06T08:17:51.151Z,76.93
2018-11-06T08:20:20.395Z,81.67
2018-11-06T08:22:49.648Z,76.80
2018-11-06T08:25:18.939Z,72.53
2018-11-06T08:27:48.283Z,73.07
2018-11-06T08:30:17.539Z,73.17
2018-11-06T08:32:47.529Z,68.90
2018-11-06T08:35:17.671Z,69.23
2018-11-06T08:37:46.991Z,71.93
2018-11-06T08:40:17.363Z,65.73
2018-11-06T08:42:46.663Z,66.43
2018-11-06T08:45:16.508Z,63.97
2018-11-06T08:47:46.283Z,60.70
2018-11-06T08:50:23.084Z,59.97
2018-11-06T08:52:52.404Z,63.53
2018-11-06T08:55:21.687Z,60.30
2018-11-06T08:57:50.963Z,63.23
2018-11-06T09:00:20.376Z,56.77
2018-11-06T09:02:50.093Z,54.57
2018-11-06T09:05:19.973Z,54.47
2018-11-06T09:07:49.192Z,52.80
2018-11-06T09:10:18.424Z,54.17
2018-11-06T09:12:47.726Z,49.97
2018-11-06T09:15:17.848Z,49.93
2018-11-06T09:17:47.103Z,52.47
2018-11-06T09:20:17.164Z,52.30
2018-11-06T09:22:46.452Z,52.10
2018-11-06T09:25:17.192Z,46.80
2018-11-06T09:27:46.471Z,48.13
2018-11-06T09:30:17.127Z,44.27
2018-11-06T09:32:46.427Z,100.43
2018-11-06T09:35:15.993Z,51.30
2018-11-06T09:37:45.737Z,40.47
2018-11-06T09:40:16.539Z,42.37
2018-11-06T09:42:45.908Z,40.13
2018-11-06T09:45:15.354Z,35.30
2018-11-06T09:47:44.630Z,35.40
2018-11-06T09:50:15.425Z,35.00
2018-11-06T09:52:45.524Z,35.10
2018-11-06T09:55:15.307Z,37.33
2018-11-06T09:57:44.705Z,34.47
2018-11-06T10:00:16.134Z,33.17
2018-11-06T10:02:45.790Z,31.43
2018-11-06T10:05:15.277Z,33.83
2018-11-06T10:07:44.695Z,35.43
2018-11-06T10:10:15.721Z,31.37
2018-11-06T10:12:45.583Z,33.13
2018-11-06T10:15:19.304Z,32.70
2018-11-06T10:17:49.497Z,30.77
2018-11-06T10:20:19.714Z,33.27
2018-11-06T10:22:49.032Z,30.97
2018-11-06T10:25:18.374Z,33.83
2018-11-06T10:27:47.662Z,28.40
2018-11-06T10:30:18.136Z,28.27
2018-11-06T10:32:47.413Z,28.47
2018-11-06T10:35:16.677Z,28.27
2018-11-06T10:37:46.036Z,29.83
2018-11-06T10:40:17.884Z,28.50
2018-11-06T10:42:47.704Z,28.47
2018-11-06T10:45:17.636Z,28.60
2018-11-06T10:47:47.327Z,26.87
2018-11-06T10:50:17.240Z,27.97
2018-11-06T10:52:47.258Z,27.77
2018-11-06T10:55:16.504Z,30.70
2018-11-06T10:57:45.841Z,27.27
2018-11-06T11:00:20.403Z,28.30
2018-11-06T11:02:54.994Z,25.03
2018-11-06T11:05:26.286Z,27.10
2018-11-06T11:07:55.580Z,26.43
2018-11-06T11:10:24.877Z,25.47
2018-11-06T11:12:54.164Z,25.77
2018-11-06T11:15:23.435Z,26.13
2018-11-06T11:17:52.870Z,24.90
2018-11-06T11:20:22.239Z,24.43
2018-11-06T11:22:51.455Z,25.47
2018-11-06T11:25:20.705Z,25.53
2018-11-06T11:27:50.632Z,25.47
2018-11-06T11:30:19.899Z,24.63
2018-11-06T11:32:49.259Z,24.93
2018-11-06T11:35:18.542Z,23.80
2018-11-06T11:37:47.998Z,24.33
2018-11-06T11:40:17.582Z,25.03
2018-11-06T11:42:46.876Z,25.07
2018-11-06T11:45:16.500Z,24.10
2018-11-06T11:47:45.849Z,23.53
2018-11-06T11:50:15.929Z,22.67
2018-11-06T11:52:45.258Z,22.80
2018-11-06T11:55:14.507Z,22.20
2018-11-06T11:57:43.764Z,22.47
2018-11-06T12:00:15.484Z,22.30
2018-11-06T12:02:44.794Z,21.93
2018-11-06T12:05:14.324Z,22.90
2018-11-06T12:07:43.632Z,22.53
2018-11-06T12:10:13.748Z,21.83
2018-11-06T12:12:43.000Z,21.63
2018-11-06T12:15:15.113Z,21.77
2018-11-06T12:17:45.393Z,20.03
2018-11-06T12:20:15.307Z,22.70
2018-11-06T12:22:44.603Z,22.10
2018-11-06T12:25:14.531Z,20.03
2018-11-06T12:27:43.698Z,20.97
2018-11-06T12:30:15.327Z,19.40
2018-11-06T12:32:44.881Z,21.77
2018-11-06T12:35:14.601Z,20.07
2018-11-06T12:37:44.348Z,21.43
2018-11-06T12:40:14.252Z,19.23
2018-11-06T12:42:43.632Z,19.43
2018-11-06T12:45:15.099Z,20.60
2018-11-06T12:47:45.009Z,19.63
2018-11-06T12:50:14.326Z,19.60
2018-11-06T12:52:43.631Z,19.57
2018-11-06T12:55:14.155Z,20.77
2018-11-06T12:57:44.008Z,18.83
2018-11-06T13:00:17.977Z,19.30
2018-11-06T13:02:47.261Z,19.10
2018-11-06T13:05:16.528Z,18.87
2018-11-06T13:07:47.009Z,18.93
2018-11-06T13:10:16.490Z,18.43
2018-11-06T13:12:45.739Z,18.53
2018-11-06T13:15:15.715Z,20.17
2018-11-06T13:17:44.340Z,17.50
2018-11-06T13:20:15.069Z,17.57
2018-11-06T13:22:45.027Z,16.93
2018-11-06T13:25:14.335Z,16.60
2018-11-06T13:27:43.860Z,16.80
2018-11-06T13:30:16.522Z,17.20
2018-11-06T13:32:46.851Z,16.20
2018-11-06T13:35:16.343Z,17.20
2018-11-06T13:37:45.618Z,19.80
2018-11-06T13:40:16.099Z,19.07
2018-11-06T13:42:46.146Z,20.40
2018-11-06T13:45:19.108Z,20.87
2018-11-06T13:47:48.218Z,21.00
2018-11-06T13:50:17.665Z,22.77
2018-11-06T13:52:46.964Z,22.50
2018-11-06T13:55:16.873Z,22.43
2018-11-06T13:57:46.754Z,22.37
2018-11-06T14:00:19.827Z,22.60
2018-11-06T14:02:49.176Z,23.17
2018-11-06T14:05:19.651Z,23.30
2018-11-06T14:07:48.901Z,22.70
2018-11-06T14:10:18.270Z,22.60
2018-11-06T14:12:47.520Z,21.80
2018-11-06T14:15:16.906Z,21.30
2018-11-06T14:17:46.227Z,23.20
2018-11-06T14:20:16.690Z,23.73
2018-11-06T14:22:46.285Z,21.47
2018-11-06T14:25:16.171Z,22.97
2018-11-06T14:27:45.756Z,22.07
2018-11-06T14:30:17.395Z,21.23
2018-11-06T14:32:47.061Z,21.63
2018-11-06T14:35:17.518Z,24.33
2018-11-06T14:37:47.211Z,23.40
2018-11-06T14:40:17.290Z,22.57
2018-11-06T14:42:47.028Z,22.23
2018-11-06T14:45:17.628Z,27.37
2018-11-06T14:47:46.974Z,20.00
2018-11-06T14:50:16.198Z,21.03
2018-11-06T14:52:45.601Z,22.27
2018-11-06T14:55:15.698Z,22.03
2018-11-06T14:57:45.019Z,21.93
2018-11-06T15:00:15.973Z,23.23
2018-11-06T15:02:47.619Z,23.67
2018-11-06T15:05:17.717Z,22.60
2018-11-06T15:07:47.085Z,24.27
2018-11-06T15:10:16.517Z,24.47
2018-11-06T15:12:46.313Z,22.93
2018-11-06T15:15:16.128Z,21.90
2018-11-06T15:17:46.351Z,22.47
2018-11-06T15:20:18.573Z,24.30
2018-11-06T15:22:47.990Z,23.80
2018-11-06T15:25:18.102Z,25.77
2018-11-06T15:27:47.385Z,29.30
2018-11-06T15:30:17.780Z,26.83
2018-11-06T15:32:47.172Z,27.33
2018-11-06T15:35:17.944Z,31.50
2018-11-06T15:37:47.231Z,27.93
2018-11-06T15:40:17.958Z,25.43
2018-11-06T15:42:47.645Z,26.27
2018-11-06T15:45:17.985Z,28.83
2018-11-06T15:47:48.571Z,31.57
2018-11-06T15:50:19.049Z,32.83
2018-11-06T15:52:49.292Z,30.73
2018-11-06T15:55:18.620Z,29.93
2018-11-06T15:57:48.436Z,31.83
2018-11-06T16:00:19.983Z,32.27
2018-11-06T16:02:49.441Z,31.53
2018-11-06T16:05:18.873Z,33.13
2018-11-06T16:07:48.810Z,34.53
2018-11-06T16:10:19.560Z,34.00
2018-11-06T16:12:48.888Z,33.07
2018-11-06T16:15:18.371Z,36.57
2018-11-06T16:17:48.025Z,34.93
2018-11-06T16:20:18.747Z,34.50
2018-11-06T16:22:49.197Z,37.97
2018-11-06T16:25:19.328Z,36.93
2018-11-06T16:27:48.802Z,35.83
2018-11-06T16:30:20.169Z,37.50
2018-11-06T16:32:49.563Z,37.17
2018-11-06T16:35:23.773Z,34.70
2018-11-06T16:37:53.372Z,36.00
2018-11-06T16:40:22.673Z,36.83
2018-11-06T16:42:52.526Z,42.10
2018-11-06T16:45:22.711Z,38.30
2018-11-06T16:47:52.676Z,38.73
2018-11-06T16:50:22.337Z,39.17
2018-11-06T16:52:52.103Z,37.60
2018-11-06T16:55:21.417Z,35.87
2018-11-06T16:57:50.731Z,38.07
2018-11-06T17:00:22.037Z,35.20
2018-11-06T17:02:51.423Z,37.53
2018-11-06T17:05:20.832Z,38.40
2018-11-06T17:07:50.508Z,35.97
2018-11-06T17:10:20.539Z,36.17
2018-11-06T17:12:49.805Z,39.80
2018-11-06T17:15:20.275Z,38.47
2018-11-06T17:17:51.504Z,37.47
2018-11-06T17:20:21.247Z,38.70
2018-11-06T17:22:51.532Z,36.53
2018-11-06T17:25:22.036Z,40.57
2018-11-06T17:27:51.297Z,40.57
2018-11-06T17:30:20.805Z,39.97
2018-11-06T17:32:50.597Z,39.20
2018-11-06T17:35:20.649Z,36.93
2018-11-06T17:37:49.902Z,38.73
2018-11-06T17:40:20.314Z,38.20
2018-11-06T17:42:49.632Z,36.83
2018-11-06T17:45:20.422Z,35.93
2018-11-06T17:47:49.619Z,38.50
2018-11-06T17:50:19.079Z,42.03
2018-11-06T17:52:49.114Z,43.33
2018-11-06T17:55:19.761Z,42.33
2018-11-06T17:57:48.976Z,39.63
2018-11-06T18:00:20.772Z,39.13
2018-11-06T18:02:50.234Z,40.70
2018-11-06T18:05:21.067Z,40.03
2018-11-06T18:07:50.323Z,39.40
2018-11-06T18:10:20.290Z,36.93
2018-11-06T18:12:49.574Z,37.20
2018-11-06T18:15:18.965Z,39.07
2018-11-06T18:17:48.269Z,41.60
2018-11-06T18:20:17.505Z,38.00
2018-11-06T18:22:46.903Z,38.03
2018-11-06T18:25:16.840Z,39.10
2018-11-06T18:27:46.066Z,40.97
2018-11-06T18:30:17.063Z,34.73
2018-11-06T18:32:46.333Z,37.40
2018-11-06T18:35:16.767Z,40.60
2018-11-06T18:37:46.091Z,39.27
2018-11-06T18:40:17.598Z,39.07
2018-11-06T18:42:48.808Z,40.00
2018-11-06T18:45:18.138Z,39.50
2018-11-06T18:47:47.432Z,37.37
2018-11-06T18:50:17.884Z,34.93
2018-11-06T18:52:48.404Z,37.03
2018-11-06T18:55:17.821Z,38.03
2018-11-06T18:57:47.187Z,39.93
2018-11-06T19:00:18.548Z,36.97
2018-11-06T19:02:49.211Z,40.40
2018-11-06T19:05:19.314Z,39.10
2018-11-06T19:07:48.799Z,40.33
2018-11-06T19:10:18.396Z,35.63
2018-11-06T19:12:47.788Z,34.97
2018-11-06T19:15:19.226Z,37.43
2018-11-06T19:17:49.107Z,38.77
2018-11-06T19:20:18.409Z,41.03
2018-11-06T19:22:47.887Z,40.00
2018-11-06T19:25:17.314Z,37.23
2018-11-06T19:27:46.583Z,40.40
2018-11-06T19:30:17.458Z,41.17
2018-11-06T19:32:46.798Z,40.97
2018-11-06T19:35:16.211Z,42.03
2018-11-06T19:37:45.554Z,40.50
2018-11-06T19:40:16.617Z,39.53
2018-11-06T19:42:46.790Z,41.93
2018-11-06T19:45:16.214Z,40.87
2018-11-06T19:47:45.769Z,37.93
2018-11-06T19:50:16.689Z,37.73
2018-11-06T19:52:46.114Z,37.20
2018-11-06T19:55:16.520Z,40.57
2018-11-06T19:57:45.872Z,38.30
2018-11-06T20:00:22.283Z,35.43
2018-11-06T20:02:52.957Z,39.27
2018-11-06T20:05:22.357Z,39.43
2018-11-06T20:07:52.189Z,39.70
2018-11-06T20:10:23.054Z,40.43
2018-11-06T20:12:54.076Z,44.43
2018-11-06T20:15:23.862Z,39.30
2018-11-06T20:17:53.238Z,39.30
2018-11-06T20:20:25.181Z,42.30
2018-11-06T20:22:54.547Z,44.40
2018-11-06T20:25:23.856Z,40.33
2018-11-06T20:27:53.854Z,41.13
2018-11-06T20:30:24.615Z,41.40
2018-11-06T20:32:54.123Z,43.10
2018-11-06T20:35:23.545Z,39.37
2018-11-06T20:37:52.903Z,41.97
2018-11-06T20:40:23.547Z,38.43
2018-11-06T20:42:52.966Z,43.00
2018-11-06T20:45:22.665Z,40.80
2018-11-06T20:47:52.601Z,41.67
2018-11-06T20:50:23.627Z,45.87
2018-11-06T20:52:52.992Z,48.30
2018-11-06T20:55:22.251Z,48.83
2018-11-06T20:57:51.507Z,46.53
2018-11-06T21:00:22.489Z,49.60
2018-11-06T21:02:52.896Z,48.00
2018-11-06T21:05:22.196Z,42.33
2018-11-06T21:07:52.192Z,47.60
2018-11-06T21:10:23.693Z,44.70
2018-11-06T21:12:52.981Z,50.37
2018-11-06T21:15:22.303Z,45.30
2018-11-06T21:17:51.664Z,46.17
2018-11-06T21:20:20.930Z,46.73
2018-11-06T21:22:50.197Z,43.00
2018-11-06T21:25:20.152Z,43.87
2018-11-06T21:27:49.289Z,47.40
2018-11-06T21:30:20.017Z,50.40
2018-11-06T21:32:50.651Z,44.17
2018-11-06T21:35:19.953Z,45.00
2018-11-06T21:37:49.217Z,40.33
2018-11-06T21:40:20.030Z,40.30
2018-11-06T21:42:49.672Z,39.63
2018-11-06T21:45:19.417Z,43.40
2018-11-06T21:47:49.407Z,40.47
2018-11-06T21:50:19.137Z,44.73
2018-11-06T21:52:48.387Z,41.03
2018-11-06T21:55:18.654Z,45.73
2018-11-06T21:57:48.135Z,44.37
2018-11-06T22:00:19.856Z,41.50
2018-11-06T22:02:49.137Z,44.40
2018-11-06T22:05:19.639Z,44.30
2018-11-06T22:07:49.030Z,45.67
2018-11-06T22:10:19.569Z,43.53
2018-11-06T22:12:50.144Z,45.23
2018-11-06T22:15:20.028Z,49.77
2018-11-06T22:17:49.305Z,51.90
2018-11-06T22:20:19.448Z,46.70
2018-11-06T22:22:49.250Z,47.90
2018-11-06T22:25:18.508Z,51.03
2018-11-06T22:27:48.571Z,49.23
2018-11-06T22:30:17.964Z,43.47
2018-11-06T22:32:47.621Z,49.67
2018-11-06T22:35:17.839Z,46.30
2018-11-06T22:37:47.118Z,48.67
2018-11-06T22:40:17.227Z,46.00
2018-11-06T22:42:46.487Z,46.63
2018-11-06T22:45:17.603Z,48.23
2018-11-06T22:47:46.889Z,48.13
2018-11-06T22:50:17.512Z,48.60
2018-11-06T22:52:47.780Z,49.77
2018-11-06T22:55:17.344Z,53.70
2018-11-06T22:57:46.627Z,58.67
2018-11-06T23:00:18.666Z,56.83
2018-11-06T23:02:48.574Z,63.10
2018-11-06T23:05:17.852Z,58.70
2018-11-06T23:08:49.923Z,57.63
2018-11-06T23:11:19.173Z,50.77
2018-11-06T23:13:49.283Z,52.23
2018-11-06T23:16:18.545Z,57.53
2018-11-06T23:18:47.829Z,55.87
2018-11-06T23:21:17.104Z,63.27
2018-11-06T23:23:46.448Z,58.70
2018-11-06T23:26:15.789Z,57.30
2018-11-06T23:28:45.066Z,64.03
2018-11-06T23:31:14.396Z,58.00
2018-11-06T23:33:43.996Z,64.97
2018-11-06T23:36:13.302Z,60.83
2018-11-06T23:38:42.531Z,59.87
2018-11-06T23:41:11.807Z,58.47
2018-11-06T23:43:41.097Z,52.27
2018-11-06T23:46:10.448Z,48.43
2018-11-06T23:48:39.692Z,50.70
2018-11-06T23:51:08.929Z,54.80
2018-11-06T23:53:38.917Z,54.33
2018-11-06T23:56:08.181Z,64.37
2018-11-06T23:58:37.405Z,69.83
